sensor_id;sensor_type;location;lat;lon;timestamp;P1;durP1;ratioP1;P2;durP2;ratioP2
1446;SDS011;717;51.522;7.266;2022-10-24T00:02:04;6.97;;;2.47;;
1446;SDS011;717;51.522;7.266;2022-10-24T00:04:34;8.25;;;2.15;;
1446;SDS011;717;51.522;7.266;2022-10-24T00:07:01;7.38;;;1.70;;
1446;SDS011;717;51.522;7.266;2022-10-24T00:09:28;5.45;;;1.85;;
1446;SDS011;717;51.522;7.266;2022-10-24T00:11:55;3.80;;;1.83;;
1446;SDS011;717;51.522;7.266;2022-10-24T00:14:22;5.43;;;1.73;;
1446;SDS011;717;51.522;7.266;2022-10-24T00:16:50;3.38;;;1.70;;
1446;SDS011;717;51.522;7.266;2022-10-24T00:19:17;4.45;;;2.10;;
1446;SDS011;717;51.522;7.266;2022-10-24T00:21:43;9.15;;;2.53;;
1446;SDS011;717;51.522;7.266;2022-10-24T00:24:10;6.20;;;1.67;;
1446;SDS011;717;51.522;7.266;2022-10-24T00:26:37;3.85;;;1.95;;
1446;SDS011;717;51.522;7.266;2022-10-24T00:29:04;7.03;;;2.08;;
1446;SDS011;717;51.522;7.266;2022-10-24T00:31:31;5.13;;;2.13;;
1446;SDS011;717;51.522;7.266;2022-10-24T00:33:59;5.22;;;1.85;;
1446;SDS011;717;51.522;7.266;2022-10-24T00:36:26;4.85;;;2.08;;
1446;SDS011;717;51.522;7.266;2022-10-24T00:38:53;3.10;;;1.70;;
1446;SDS011;717;51.522;7.266;2022-10-24T00:41:24;5.95;;;2.22;;
1446;SDS011;717;51.522;7.266;2022-10-24T00:46:43;8.55;;;2.10;;
1446;SDS011;717;51.522;7.266;2022-10-24T00:49:14;6.03;;;2.10;;
1446;SDS011;717;51.522;7.266;2022-10-24T00:51:43;6.70;;;1.80;;
1446;SDS011;717;51.522;7.266;2022-10-24T00:54:13;6.93;;;2.20;;
1446;SDS011;717;51.522;7.266;2022-10-24T00:56:41;5.25;;;2.00;;
1446;SDS011;717;51.522;7.266;2022-10-24T00:59:14;5.65;;;2.20;;
1446;SDS011;717;51.522;7.266;2022-10-24T01:01:42;7.00;;;2.70;;
1446;SDS011;717;51.522;7.266;2022-10-24T01:04:13;3.78;;;1.75;;
1446;SDS011;717;51.522;7.266;2022-10-24T01:06:44;7.22;;;2.15;;
1446;SDS011;717;51.522;7.266;2022-10-24T01:09:18;6.22;;;2.20;;
1446;SDS011;717;51.522;7.266;2022-10-24T01:12:02;8.80;;;2.25;;
1446;SDS011;717;51.522;7.266;2022-10-24T01:14:36;5.95;;;1.90;;
1446;SDS011;717;51.522;7.266;2022-10-24T01:17:12;7.78;;;2.67;;
1446;SDS011;717;51.522;7.266;2022-10-24T01:20:03;8.00;;;2.17;;
1446;SDS011;717;51.522;7.266;2022-10-24T01:22:53;4.60;;;1.70;;
1446;SDS011;717;51.522;7.266;2022-10-24T01:25:31;5.38;;;1.90;;
1446;SDS011;717;51.522;7.266;2022-10-24T01:28:06;5.75;;;1.90;;
1446;SDS011;717;51.522;7.266;2022-10-24T01:30:39;5.30;;;1.83;;
1446;SDS011;717;51.522;7.266;2022-10-24T01:33:09;6.40;;;1.67;;
1446;SDS011;717;51.522;7.266;2022-10-24T01:35:45;5.22;;;2.03;;
1446;SDS011;717;51.522;7.266;2022-10-24T01:38:18;2.92;;;1.55;;
1446;SDS011;717;51.522;7.266;2022-10-24T01:40:50;3.17;;;1.40;;
1446;SDS011;717;51.522;7.266;2022-10-24T01:43:21;4.57;;;1.30;;
1446;SDS011;717;51.522;7.266;2022-10-24T01:45:54;4.63;;;1.50;;
1446;SDS011;717;51.522;7.266;2022-10-24T01:48:24;2.80;;;1.52;;
1446;SDS011;717;51.522;7.266;2022-10-24T01:50:52;3.08;;;1.20;;
1446;SDS011;717;51.522;7.266;2022-10-24T01:53:21;3.45;;;1.40;;
1446;SDS011;717;51.522;7.266;2022-10-24T01:55:50;3.58;;;1.42;;
1446;SDS011;717;51.522;7.266;2022-10-24T01:58:17;5.55;;;1.83;;
1446;SDS011;717;51.522;7.266;2022-10-24T02:00:44;2.78;;;1.77;;
1446;SDS011;717;51.522;7.266;2022-10-24T02:03:17;3.10;;;1.33;;
1446;SDS011;717;51.522;7.266;2022-10-24T02:05:48;4.10;;;1.50;;
1446;SDS011;717;51.522;7.266;2022-10-24T02:08:18;5.40;;;1.67;;
1446;SDS011;717;51.522;7.266;2022-10-24T02:10:49;4.90;;;1.45;;
1446;SDS011;717;51.522;7.266;2022-10-24T02:13:22;3.28;;;1.60;;
1446;SDS011;717;51.522;7.266;2022-10-24T02:15:54;5.10;;;1.77;;
1446;SDS011;717;51.522;7.266;2022-10-24T02:18:25;6.57;;;1.90;;
1446;SDS011;717;51.522;7.266;2022-10-24T02:20:56;3.55;;;1.63;;
1446;SDS011;717;51.522;7.266;2022-10-24T02:23:31;4.60;;;1.50;;
1446;SDS011;717;51.522;7.266;2022-10-24T02:26:00;5.05;;;1.70;;
1446;SDS011;717;51.522;7.266;2022-10-24T02:28:31;3.67;;;1.42;;
1446;SDS011;717;51.522;7.266;2022-10-24T02:31:05;4.55;;;1.60;;
1446;SDS011;717;51.522;7.266;2022-10-24T02:33:35;3.90;;;1.52;;
1446;SDS011;717;51.522;7.266;2022-10-24T02:36:06;7.30;;;1.75;;
1446;SDS011;717;51.522;7.266;2022-10-24T02:38:34;5.20;;;1.70;;
1446;SDS011;717;51.522;7.266;2022-10-24T02:41:05;3.55;;;1.40;;
1446;SDS011;717;51.522;7.266;2022-10-24T02:43:34;4.53;;;1.48;;
1446;SDS011;717;51.522;7.266;2022-10-24T02:46:01;6.03;;;1.63;;
1446;SDS011;717;51.522;7.266;2022-10-24T02:48:31;6.60;;;1.30;;
1446;SDS011;717;51.522;7.266;2022-10-24T02:53:42;4.05;;;1.60;;
1446;SDS011;717;51.522;7.266;2022-10-24T02:56:08;4.75;;;1.20;;
1446;SDS011;717;51.522;7.266;2022-10-24T02:58:35;5.70;;;1.55;;
1446;SDS011;717;51.522;7.266;2022-10-24T03:01:02;5.25;;;1.42;;
1446;SDS011;717;51.522;7.266;2022-10-24T03:03:29;2.28;;;0.98;;
1446;SDS011;717;51.522;7.266;2022-10-24T03:05:55;2.40;;;0.95;;
1446;SDS011;717;51.522;7.266;2022-10-24T03:08:22;7.40;;;1.30;;
1446;SDS011;717;51.522;7.266;2022-10-24T03:10:50;8.18;;;1.48;;
1446;SDS011;717;51.522;7.266;2022-10-24T03:13:17;2.35;;;1.05;;
1446;SDS011;717;51.522;7.266;2022-10-24T03:15:43;1.95;;;1.05;;
1446;SDS011;717;51.522;7.266;2022-10-24T03:18:10;3.90;;;0.93;;
1446;SDS011;717;51.522;7.266;2022-10-24T03:20:37;4.22;;;1.35;;
1446;SDS011;717;51.522;7.266;2022-10-24T03:23:04;9.57;;;1.15;;
1446;SDS011;717;51.522;7.266;2022-10-24T03:25:30;3.15;;;1.23;;
1446;SDS011;717;51.522;7.266;2022-10-24T03:27:58;3.90;;;1.27;;
1446;SDS011;717;51.522;7.266;2022-10-24T03:30:25;3.42;;;1.25;;
1446;SDS011;717;51.522;7.266;2022-10-24T03:32:52;4.10;;;1.15;;
1446;SDS011;717;51.522;7.266;2022-10-24T03:35:18;4.68;;;1.15;;
1446;SDS011;717;51.522;7.266;2022-10-24T03:37:45;3.95;;;1.30;;
1446;SDS011;717;51.522;7.266;2022-10-24T03:40:12;4.80;;;1.55;;
1446;SDS011;717;51.522;7.266;2022-10-24T03:42:39;3.53;;;1.10;;
1446;SDS011;717;51.522;7.266;2022-10-24T03:45:07;2.55;;;1.10;;
1446;SDS011;717;51.522;7.266;2022-10-24T03:47:34;4.00;;;1.30;;
1446;SDS011;717;51.522;7.266;2022-10-24T03:50:02;5.25;;;1.38;;
1446;SDS011;717;51.522;7.266;2022-10-24T03:52:29;2.92;;;1.23;;
1446;SDS011;717;51.522;7.266;2022-10-24T03:54:56;2.75;;;1.20;;
1446;SDS011;717;51.522;7.266;2022-10-24T03:57:22;3.67;;;1.10;;
1446;SDS011;717;51.522;7.266;2022-10-24T03:59:49;5.50;;;1.30;;
1446;SDS011;717;51.522;7.266;2022-10-24T04:02:17;2.95;;;1.10;;
1446;SDS011;717;51.522;7.266;2022-10-24T04:04:44;3.10;;;1.20;;
1446;SDS011;717;51.522;7.266;2022-10-24T04:07:10;3.25;;;1.17;;
1446;SDS011;717;51.522;7.266;2022-10-24T04:09:37;3.40;;;1.08;;
1446;SDS011;717;51.522;7.266;2022-10-24T04:12:04;3.83;;;1.10;;
1446;SDS011;717;51.522;7.266;2022-10-24T04:14:31;5.55;;;1.25;;
1446;SDS011;717;51.522;7.266;2022-10-24T04:16:57;4.25;;;1.42;;
1446;SDS011;717;51.522;7.266;2022-10-24T04:19:25;3.55;;;1.10;;
1446;SDS011;717;51.522;7.266;2022-10-24T04:21:52;4.88;;;1.20;;
1446;SDS011;717;51.522;7.266;2022-10-24T04:24:19;5.38;;;1.40;;
1446;SDS011;717;51.522;7.266;2022-10-24T04:26:46;3.40;;;1.33;;
1446;SDS011;717;51.522;7.266;2022-10-24T04:29:12;3.30;;;1.13;;
1446;SDS011;717;51.522;7.266;2022-10-24T04:31:39;5.22;;;1.50;;
1446;SDS011;717;51.522;7.266;2022-10-24T04:34:06;4.00;;;1.30;;
1446;SDS011;717;51.522;7.266;2022-10-24T04:36:34;3.40;;;1.17;;
1446;SDS011;717;51.522;7.266;2022-10-24T04:39:01;3.53;;;1.42;;
1446;SDS011;717;51.522;7.266;2022-10-24T04:41:27;4.70;;;1.50;;
1446;SDS011;717;51.522;7.266;2022-10-24T04:43:54;4.68;;;1.25;;
1446;SDS011;717;51.522;7.266;2022-10-24T04:46:21;4.28;;;1.25;;
1446;SDS011;717;51.522;7.266;2022-10-24T04:48:47;3.15;;;1.25;;
1446;SDS011;717;51.522;7.266;2022-10-24T04:51:14;5.40;;;1.63;;
1446;SDS011;717;51.522;7.266;2022-10-24T04:53:42;4.88;;;1.33;;
1446;SDS011;717;51.522;7.266;2022-10-24T04:56:09;5.47;;;1.48;;
1446;SDS011;717;51.522;7.266;2022-10-24T04:58:36;3.75;;;1.20;;
1446;SDS011;717;51.522;7.266;2022-10-24T05:01:02;4.47;;;1.02;;
1446;SDS011;717;51.522;7.266;2022-10-24T05:03:30;4.88;;;1.60;;
1446;SDS011;717;51.522;7.266;2022-10-24T05:05:56;3.17;;;1.00;;
1446;SDS011;717;51.522;7.266;2022-10-24T05:08:23;3.00;;;1.27;;
1446;SDS011;717;51.522;7.266;2022-10-24T05:10:51;3.00;;;1.20;;
1446;SDS011;717;51.522;7.266;2022-10-24T05:13:18;2.08;;;0.90;;
1446;SDS011;717;51.522;7.266;2022-10-24T05:15:44;2.15;;;0.95;;
1446;SDS011;717;51.522;7.266;2022-10-24T05:18:11;4.45;;;1.30;;
1446;SDS011;717;51.522;7.266;2022-10-24T05:20:38;5.30;;;1.08;;
1446;SDS011;717;51.522;7.266;2022-10-24T05:23:05;5.03;;;1.02;;
1446;SDS011;717;51.522;7.266;2022-10-24T05:25:33;2.63;;;1.08;;
1446;SDS011;717;51.522;7.266;2022-10-24T05:28:01;3.45;;;1.20;;
1446;SDS011;717;51.522;7.266;2022-10-24T05:30:28;4.95;;;1.20;;
1446;SDS011;717;51.522;7.266;2022-10-24T05:32:57;2.60;;;1.27;;
1446;SDS011;717;51.522;7.266;2022-10-24T05:35:24;2.97;;;0.90;;
1446;SDS011;717;51.522;7.266;2022-10-24T05:37:51;4.63;;;1.20;;
1446;SDS011;717;51.522;7.266;2022-10-24T05:40:18;4.38;;;1.08;;
1446;SDS011;717;51.522;7.266;2022-10-24T05:42:45;4.15;;;1.33;;
1446;SDS011;717;51.522;7.266;2022-10-24T05:45:14;3.80;;;1.00;;
1446;SDS011;717;51.522;7.266;2022-10-24T05:47:40;3.10;;;1.10;;
1446;SDS011;717;51.522;7.266;2022-10-24T05:50:07;3.47;;;1.25;;
1446;SDS011;717;51.522;7.266;2022-10-24T05:52:34;4.20;;;1.08;;
1446;SDS011;717;51.522;7.266;2022-10-24T05:55:02;4.40;;;1.10;;
1446;SDS011;717;51.522;7.266;2022-10-24T05:57:29;3.10;;;1.42;;
1446;SDS011;717;51.522;7.266;2022-10-24T05:59:56;2.78;;;1.20;;
1446;SDS011;717;51.522;7.266;2022-10-24T06:02:24;5.05;;;1.10;;
1446;SDS011;717;51.522;7.266;2022-10-24T06:04:51;3.35;;;1.50;;
1446;SDS011;717;51.522;7.266;2022-10-24T06:07:20;2.97;;;0.98;;
1446;SDS011;717;51.522;7.266;2022-10-24T06:09:47;1.58;;;0.90;;
1446;SDS011;717;51.522;7.266;2022-10-24T06:12:13;3.47;;;1.23;;
1446;SDS011;717;51.522;7.266;2022-10-24T06:14:40;4.00;;;1.50;;
1446;SDS011;717;51.522;7.266;2022-10-24T06:17:08;3.30;;;1.20;;
1446;SDS011;717;51.522;7.266;2022-10-24T06:19:37;3.13;;;0.93;;
1446;SDS011;717;51.522;7.266;2022-10-24T06:22:05;3.35;;;1.30;;
1446;SDS011;717;51.522;7.266;2022-10-24T06:24:33;2.25;;;0.80;;
1446;SDS011;717;51.522;7.266;2022-10-24T06:27:00;4.95;;;1.00;;
1446;SDS011;717;51.522;7.266;2022-10-24T06:29:27;3.60;;;0.90;;
1446;SDS011;717;51.522;7.266;2022-10-24T06:31:54;2.80;;;1.20;;
1446;SDS011;717;51.522;7.266;2022-10-24T06:34:21;4.18;;;0.80;;
1446;SDS011;717;51.522;7.266;2022-10-24T06:36:49;3.67;;;0.77;;
1446;SDS011;717;51.522;7.266;2022-10-24T06:39:16;5.10;;;0.80;;
1446;SDS011;717;51.522;7.266;2022-10-24T06:41:42;3.60;;;1.00;;
1446;SDS011;717;51.522;7.266;2022-10-24T06:44:09;3.92;;;0.90;;
1446;SDS011;717;51.522;7.266;2022-10-24T06:46:36;2.55;;;0.93;;
1446;SDS011;717;51.522;7.266;2022-10-24T06:49:03;2.72;;;0.90;;
1446;SDS011;717;51.522;7.266;2022-10-24T06:51:30;3.75;;;0.80;;
1446;SDS011;717;51.522;7.266;2022-10-24T06:53:58;4.53;;;1.10;;
1446;SDS011;717;51.522;7.266;2022-10-24T06:56:24;3.45;;;1.00;;
1446;SDS011;717;51.522;7.266;2022-10-24T06:58:51;2.72;;;0.88;;
1446;SDS011;717;51.522;7.266;2022-10-24T07:01:18;1.92;;;1.00;;
1446;SDS011;717;51.522;7.266;2022-10-24T07:03:47;6.93;;;1.35;;
1446;SDS011;717;51.522;7.266;2022-10-24T07:06:15;3.40;;;0.80;;
1446;SDS011;717;51.522;7.266;2022-10-24T07:08:43;4.43;;;0.90;;
1446;SDS011;717;51.522;7.266;2022-10-24T07:11:11;3.58;;;0.90;;
1446;SDS011;717;51.522;7.266;2022-10-24T07:13:38;2.72;;;0.80;;
1446;SDS011;717;51.522;7.266;2022-10-24T07:16:05;2.80;;;0.70;;
1446;SDS011;717;51.522;7.266;2022-10-24T07:18:32;2.65;;;0.85;;
1446;SDS011;717;51.522;7.266;2022-10-24T07:21:00;2.97;;;0.98;;
1446;SDS011;717;51.522;7.266;2022-10-24T07:23:27;3.15;;;0.85;;
1446;SDS011;717;51.522;7.266;2022-10-24T07:25:53;3.33;;;0.70;;
1446;SDS011;717;51.522;7.266;2022-10-24T07:28:22;4.03;;;0.80;;
1446;SDS011;717;51.522;7.266;2022-10-24T07:30:48;3.63;;;0.93;;
1446;SDS011;717;51.522;7.266;2022-10-24T07:33:15;4.10;;;0.90;;
1446;SDS011;717;51.522;7.266;2022-10-24T07:35:42;2.25;;;0.95;;
1446;SDS011;717;51.522;7.266;2022-10-24T07:38:09;2.80;;;0.70;;
1446;SDS011;717;51.522;7.266;2022-10-24T07:40:35;6.18;;;1.00;;
1446;SDS011;717;51.522;7.266;2022-10-24T07:43:02;3.25;;;0.80;;
1446;SDS011;717;51.522;7.266;2022-10-24T07:45:30;2.17;;;0.80;;
1446;SDS011;717;51.522;7.266;2022-10-24T07:47:57;3.90;;;0.80;;
1446;SDS011;717;51.522;7.266;2022-10-24T07:50:24;5.43;;;1.52;;
1446;SDS011;717;51.522;7.266;2022-10-24T07:52:51;2.03;;;0.80;;
1446;SDS011;717;51.522;7.266;2022-10-24T07:55:18;2.67;;;0.77;;
1446;SDS011;717;51.522;7.266;2022-10-24T07:57:44;3.40;;;1.20;;
1446;SDS011;717;51.522;7.266;2022-10-24T08:00:11;2.97;;;0.80;;
1446;SDS011;717;51.522;7.266;2022-10-24T08:02:40;4.78;;;0.90;;
1446;SDS011;717;51.522;7.266;2022-10-24T08:05:08;2.13;;;0.85;;
1446;SDS011;717;51.522;7.266;2022-10-24T08:07:36;5.18;;;0.80;;
1446;SDS011;717;51.522;7.266;2022-10-24T08:10:03;2.72;;;0.77;;
1446;SDS011;717;51.522;7.266;2022-10-24T08:12:33;4.20;;;1.02;;
1446;SDS011;717;51.522;7.266;2022-10-24T08:14:59;3.65;;;1.02;;
1446;SDS011;717;51.522;7.266;2022-10-24T08:17:26;3.22;;;0.82;;
1446;SDS011;717;51.522;7.266;2022-10-24T08:19:54;4.75;;;1.08;;
1446;SDS011;717;51.522;7.266;2022-10-24T08:22:21;3.75;;;0.85;;
1446;SDS011;717;51.522;7.266;2022-10-24T08:24:48;3.35;;;0.80;;
1446;SDS011;717;51.522;7.266;2022-10-24T08:27:15;3.97;;;1.13;;
1446;SDS011;717;51.522;7.266;2022-10-24T08:29:42;3.67;;;0.95;;
1446;SDS011;717;51.522;7.266;2022-10-24T08:32:08;3.80;;;1.08;;
1446;SDS011;717;51.522;7.266;2022-10-24T08:34:36;5.10;;;1.15;;
1446;SDS011;717;51.522;7.266;2022-10-24T08:37:04;3.65;;;0.93;;
1446;SDS011;717;51.522;7.266;2022-10-24T08:39:31;5.18;;;1.00;;
1446;SDS011;717;51.522;7.266;2022-10-24T08:41:59;5.85;;;0.98;;
1446;SDS011;717;51.522;7.266;2022-10-24T08:44:28;4.38;;;1.05;;
1446;SDS011;717;51.522;7.266;2022-10-24T08:46:57;3.72;;;0.73;;
1446;SDS011;717;51.522;7.266;2022-10-24T08:49:29;4.65;;;1.00;;
1446;SDS011;717;51.522;7.266;2022-10-24T08:52:00;2.60;;;0.73;;
1446;SDS011;717;51.522;7.266;2022-10-24T08:54:31;3.33;;;1.13;;
1446;SDS011;717;51.522;7.266;2022-10-24T08:57:02;4.43;;;1.15;;
1446;SDS011;717;51.522;7.266;2022-10-24T08:59:30;3.58;;;1.00;;
1446;SDS011;717;51.522;7.266;2022-10-24T09:01:59;3.03;;;1.15;;
1446;SDS011;717;51.522;7.266;2022-10-24T09:04:33;4.57;;;1.15;;
1446;SDS011;717;51.522;7.266;2022-10-24T09:07:04;4.47;;;0.90;;
1446;SDS011;717;51.522;7.266;2022-10-24T09:09:35;4.00;;;1.23;;
1446;SDS011;717;51.522;7.266;2022-10-24T09:12:07;3.53;;;1.08;;
1446;SDS011;717;51.522;7.266;2022-10-24T09:14:37;4.28;;;1.23;;
1446;SDS011;717;51.522;7.266;2022-10-24T09:17:09;4.88;;;1.40;;
1446;SDS011;717;51.522;7.266;2022-10-24T09:19:39;4.25;;;1.02;;
1446;SDS011;717;51.522;7.266;2022-10-24T09:22:10;3.22;;;0.88;;
1446;SDS011;717;51.522;7.266;2022-10-24T09:24:40;3.88;;;1.15;;
1446;SDS011;717;51.522;7.266;2022-10-24T09:27:10;6.15;;;0.93;;
1446;SDS011;717;51.522;7.266;2022-10-24T09:29:40;3.47;;;0.90;;
1446;SDS011;717;51.522;7.266;2022-10-24T09:32:12;6.55;;;0.95;;
1446;SDS011;717;51.522;7.266;2022-10-24T09:34:41;3.80;;;0.88;;
1446;SDS011;717;51.522;7.266;2022-10-24T09:40:13;3.42;;;0.80;;
1446;SDS011;717;51.522;7.266;2022-10-24T09:42:46;4.22;;;1.08;;
1446;SDS011;717;51.522;7.266;2022-10-24T09:45:27;2.90;;;1.00;;
1446;SDS011;717;51.522;7.266;2022-10-24T09:47:55;4.28;;;1.17;;
1446;SDS011;717;51.522;7.266;2022-10-24T09:50:24;3.78;;;0.90;;
1446;SDS011;717;51.522;7.266;2022-10-24T09:52:52;3.80;;;0.82;;
1446;SDS011;717;51.522;7.266;2022-10-24T09:55:24;7.22;;;1.08;;
1446;SDS011;717;51.522;7.266;2022-10-24T09:57:53;2.45;;;0.80;;
1446;SDS011;717;51.522;7.266;2022-10-24T10:00:23;3.75;;;0.98;;
1446;SDS011;717;51.522;7.266;2022-10-24T10:02:59;4.60;;;1.45;;
1446;SDS011;717;51.522;7.266;2022-10-24T10:05:28;4.38;;;1.17;;
1446;SDS011;717;51.522;7.266;2022-10-24T10:08:08;6.03;;;1.00;;
1446;SDS011;717;51.522;7.266;2022-10-24T10:10:38;4.57;;;0.90;;
1446;SDS011;717;51.522;7.266;2022-10-24T10:13:15;4.32;;;0.98;;
1446;SDS011;717;51.522;7.266;2022-10-24T10:15:48;4.15;;;0.93;;
1446;SDS011;717;51.522;7.266;2022-10-24T10:21:11;5.30;;;1.00;;
1446;SDS011;717;51.522;7.266;2022-10-24T10:23:41;3.88;;;0.90;;
1446;SDS011;717;51.522;7.266;2022-10-24T10:26:18;5.35;;;1.13;;
1446;SDS011;717;51.522;7.266;2022-10-24T10:28:52;4.13;;;1.05;;
1446;SDS011;717;51.522;7.266;2022-10-24T10:31:22;4.88;;;0.82;;
1446;SDS011;717;51.522;7.266;2022-10-24T10:33:58;6.15;;;1.10;;
1446;SDS011;717;51.522;7.266;2022-10-24T10:36:33;5.30;;;0.85;;
1446;SDS011;717;51.522;7.266;2022-10-24T10:39:11;7.22;;;1.25;;
1446;SDS011;717;51.522;7.266;2022-10-24T10:41:53;3.90;;;0.75;;
1446;SDS011;717;51.522;7.266;2022-10-24T10:44:29;4.15;;;0.88;;
1446;SDS011;717;51.522;7.266;2022-10-24T10:47:10;3.17;;;0.93;;
1446;SDS011;717;51.522;7.266;2022-10-24T10:49:41;4.72;;;0.98;;
1446;SDS011;717;51.522;7.266;2022-10-24T10:52:11;3.65;;;1.00;;
1446;SDS011;717;51.522;7.266;2022-10-24T10:54:43;5.70;;;1.13;;
1446;SDS011;717;51.522;7.266;2022-10-24T10:57:26;4.93;;;1.10;;
1446;SDS011;717;51.522;7.266;2022-10-24T10:59:59;6.72;;;1.80;;
1446;SDS011;717;51.522;7.266;2022-10-24T11:02:49;4.38;;;1.10;;
1446;SDS011;717;51.522;7.266;2022-10-24T11:05:32;4.55;;;1.08;;
1446;SDS011;717;51.522;7.266;2022-10-24T11:08:09;4.10;;;1.10;;
1446;SDS011;717;51.522;7.266;2022-10-24T11:10:46;3.97;;;1.20;;
1446;SDS011;717;51.522;7.266;2022-10-24T11:13:21;6.80;;;1.50;;
1446;SDS011;717;51.522;7.266;2022-10-24T11:15:53;5.20;;;1.23;;
1446;SDS011;717;51.522;7.266;2022-10-24T11:18:28;6.10;;;0.98;;
1446;SDS011;717;51.522;7.266;2022-10-24T11:20:59;4.57;;;1.00;;
1446;SDS011;717;51.522;7.266;2022-10-24T11:23:30;4.80;;;1.10;;
1446;SDS011;717;51.522;7.266;2022-10-24T11:26:03;4.15;;;1.10;;
1446;SDS011;717;51.522;7.266;2022-10-24T11:28:35;6.15;;;1.20;;
1446;SDS011;717;51.522;7.266;2022-10-24T11:31:07;5.50;;;1.33;;
1446;SDS011;717;51.522;7.266;2022-10-24T11:33:40;5.80;;;1.10;;
1446;SDS011;717;51.522;7.266;2022-10-24T11:36:11;5.82;;;1.15;;
1446;SDS011;717;51.522;7.266;2022-10-24T11:38:44;4.45;;;1.00;;
1446;SDS011;717;51.522;7.266;2022-10-24T11:41:23;4.90;;;1.25;;
1446;SDS011;717;51.522;7.266;2022-10-24T11:44:00;5.60;;;1.02;;
1446;SDS011;717;51.522;7.266;2022-10-24T11:46:31;5.55;;;1.20;;
1446;SDS011;717;51.522;7.266;2022-10-24T11:49:02;6.20;;;1.13;;
1446;SDS011;717;51.522;7.266;2022-10-24T11:51:37;3.85;;;1.05;;
1446;SDS011;717;51.522;7.266;2022-10-24T11:54:10;4.13;;;1.10;;
1446;SDS011;717;51.522;7.266;2022-10-24T11:56:43;7.00;;;1.13;;
1446;SDS011;717;51.522;7.266;2022-10-24T11:59:16;4.65;;;1.25;;
1446;SDS011;717;51.522;7.266;2022-10-24T12:01:57;8.23;;;1.33;;
1446;SDS011;717;51.522;7.266;2022-10-24T12:04:43;5.47;;;1.23;;
1446;SDS011;717;51.522;7.266;2022-10-24T12:10:36;6.53;;;1.00;;
1446;SDS011;717;51.522;7.266;2022-10-24T12:16:10;6.10;;;1.10;;
1446;SDS011;717;51.522;7.266;2022-10-24T12:18:43;5.40;;;1.17;;
1446;SDS011;717;51.522;7.266;2022-10-24T12:21:13;4.90;;;1.02;;
1446;SDS011;717;51.522;7.266;2022-10-24T12:23:51;6.65;;;1.23;;
1446;SDS011;717;51.522;7.266;2022-10-24T12:26:20;4.65;;;1.10;;
1446;SDS011;717;51.522;7.266;2022-10-24T12:28:54;4.05;;;1.00;;
1446;SDS011;717;51.522;7.266;2022-10-24T12:31:25;5.93;;;1.23;;
1446;SDS011;717;51.522;7.266;2022-10-24T12:37:03;1.85;;;0.77;;
1446;SDS011;717;51.522;7.266;2022-10-24T12:39:35;5.22;;;1.20;;
1446;SDS011;717;51.522;7.266;2022-10-24T12:42:04;5.13;;;1.20;;
1446;SDS011;717;51.522;7.266;2022-10-24T12:44:38;4.78;;;1.05;;
1446;SDS011;717;51.522;7.266;2022-10-24T12:53:16;4.10;;;0.82;;
1446;SDS011;717;51.522;7.266;2022-10-24T12:58:38;6.97;;;1.42;;
1446;SDS011;717;51.522;7.266;2022-10-24T13:01:08;7.72;;;1.25;;
1446;SDS011;717;51.522;7.266;2022-10-24T13:03:46;4.50;;;1.30;;
1446;SDS011;717;51.522;7.266;2022-10-24T13:06:32;4.57;;;1.00;;
1446;SDS011;717;51.522;7.266;2022-10-24T13:09:15;6.70;;;1.40;;
1446;SDS011;717;51.522;7.266;2022-10-24T13:11:59;5.30;;;1.27;;
1446;SDS011;717;51.522;7.266;2022-10-24T13:14:48;6.55;;;1.30;;
1446;SDS011;717;51.522;7.266;2022-10-24T13:17:28;5.72;;;1.40;;
1446;SDS011;717;51.522;7.266;2022-10-24T13:20:05;4.65;;;1.08;;
1446;SDS011;717;51.522;7.266;2022-10-24T13:22:41;4.63;;;1.23;;
1446;SDS011;717;51.522;7.266;2022-10-24T13:25:26;7.60;;;1.63;;
1446;SDS011;717;51.522;7.266;2022-10-24T13:34:07;3.05;;;1.10;;
1446;SDS011;717;51.522;7.266;2022-10-24T13:36:41;5.13;;;1.08;;
1446;SDS011;717;51.522;7.266;2022-10-24T13:39:10;4.72;;;1.30;;
1446;SDS011;717;51.522;7.266;2022-10-24T13:41:42;7.18;;;1.48;;
1446;SDS011;717;51.522;7.266;2022-10-24T13:44:15;6.60;;;1.50;;
1446;SDS011;717;51.522;7.266;2022-10-24T13:46:48;6.72;;;1.88;;
1446;SDS011;717;51.522;7.266;2022-10-24T13:49:19;5.53;;;0.80;;
1446;SDS011;717;51.522;7.266;2022-10-24T13:51:51;3.95;;;1.10;;
1446;SDS011;717;51.522;7.266;2022-10-24T13:54:22;5.57;;;1.17;;
1446;SDS011;717;51.522;7.266;2022-10-24T13:56:52;6.25;;;1.10;;
1446;SDS011;717;51.522;7.266;2022-10-24T13:59:25;3.95;;;0.85;;
1446;SDS011;717;51.522;7.266;2022-10-24T14:01:53;3.67;;;0.98;;
1446;SDS011;717;51.522;7.266;2022-10-24T14:04:21;7.20;;;1.58;;
1446;SDS011;717;51.522;7.266;2022-10-24T14:06:51;4.32;;;1.10;;
1446;SDS011;717;51.522;7.266;2022-10-24T14:09:24;5.32;;;1.40;;
1446;SDS011;717;51.522;7.266;2022-10-24T14:11:51;3.20;;;0.95;;
1446;SDS011;717;51.522;7.266;2022-10-24T14:14:23;3.65;;;0.80;;
1446;SDS011;717;51.522;7.266;2022-10-24T14:17:06;3.55;;;0.85;;
1446;SDS011;717;51.522;7.266;2022-10-24T14:19:46;2.17;;;0.77;;
1446;SDS011;717;51.522;7.266;2022-10-24T14:22:18;4.10;;;0.90;;
1446;SDS011;717;51.522;7.266;2022-10-24T14:24:46;4.43;;;0.98;;
1446;SDS011;717;51.522;7.266;2022-10-24T14:27:13;3.17;;;0.98;;
1446;SDS011;717;51.522;7.266;2022-10-24T14:29:49;3.92;;;0.85;;
1446;SDS011;717;51.522;7.266;2022-10-24T14:32:17;4.60;;;0.93;;
1446;SDS011;717;51.522;7.266;2022-10-24T14:34:44;3.60;;;0.90;;
1446;SDS011;717;51.522;7.266;2022-10-24T14:37:14;3.17;;;1.40;;
1446;SDS011;717;51.522;7.266;2022-10-24T14:39:47;4.22;;;1.08;;
1446;SDS011;717;51.522;7.266;2022-10-24T14:42:14;3.13;;;0.82;;
1446;SDS011;717;51.522;7.266;2022-10-24T14:44:42;4.72;;;1.10;;
1446;SDS011;717;51.522;7.266;2022-10-24T14:49:56;5.35;;;0.93;;
1446;SDS011;717;51.522;7.266;2022-10-24T14:52:24;6.00;;;1.00;;
1446;SDS011;717;51.522;7.266;2022-10-24T14:54:55;3.33;;;0.75;;
1446;SDS011;717;51.522;7.266;2022-10-24T14:57:26;4.85;;;1.08;;
1446;SDS011;717;51.522;7.266;2022-10-24T14:59:54;3.97;;;0.80;;
1446;SDS011;717;51.522;7.266;2022-10-24T15:02:23;4.35;;;1.00;;
1446;SDS011;717;51.522;7.266;2022-10-24T15:05:11;3.60;;;1.08;;
1446;SDS011;717;51.522;7.266;2022-10-24T15:07:53;2.70;;;0.80;;
1446;SDS011;717;51.522;7.266;2022-10-24T15:10:26;3.55;;;1.00;;
1446;SDS011;717;51.522;7.266;2022-10-24T15:13:01;3.92;;;1.10;;
1446;SDS011;717;51.522;7.266;2022-10-24T15:15:45;5.88;;;1.40;;
1446;SDS011;717;51.522;7.266;2022-10-24T15:18:16;4.47;;;0.77;;
1446;SDS011;717;51.522;7.266;2022-10-24T15:20:46;6.35;;;1.85;;
1446;SDS011;717;51.522;7.266;2022-10-24T15:23:17;4.75;;;1.20;;
1446;SDS011;717;51.522;7.266;2022-10-24T15:26:01;6.97;;;1.20;;
1446;SDS011;717;51.522;7.266;2022-10-24T15:28:37;5.30;;;1.33;;
1446;SDS011;717;51.522;7.266;2022-10-24T15:31:12;5.18;;;1.30;;
1446;SDS011;717;51.522;7.266;2022-10-24T15:33:40;6.70;;;1.20;;
1446;SDS011;717;51.522;7.266;2022-10-24T15:36:10;3.63;;;1.00;;
1446;SDS011;717;51.522;7.266;2022-10-24T15:38:44;6.03;;;1.33;;
1446;SDS011;717;51.522;7.266;2022-10-24T15:41:13;3.15;;;1.10;;
1446;SDS011;717;51.522;7.266;2022-10-24T15:43:40;5.38;;;1.33;;
1446;SDS011;717;51.522;7.266;2022-10-24T15:46:07;6.18;;;1.20;;
1446;SDS011;717;51.522;7.266;2022-10-24T15:48:34;5.15;;;1.20;;
1446;SDS011;717;51.522;7.266;2022-10-24T15:51:02;6.15;;;1.52;;
1446;SDS011;717;51.522;7.266;2022-10-24T15:53:29;6.85;;;1.40;;
1446;SDS011;717;51.522;7.266;2022-10-24T15:55:56;5.07;;;1.63;;
1446;SDS011;717;51.522;7.266;2022-10-24T15:58:24;7.32;;;1.25;;
1446;SDS011;717;51.522;7.266;2022-10-24T16:00:52;5.63;;;1.23;;
1446;SDS011;717;51.522;7.266;2022-10-24T16:03:20;8.32;;;1.80;;
1446;SDS011;717;51.522;7.266;2022-10-24T16:05:49;7.32;;;2.05;;
1446;SDS011;717;51.522;7.266;2022-10-24T16:08:18;8.40;;;1.90;;
1446;SDS011;717;51.522;7.266;2022-10-24T16:10:46;6.72;;;1.70;;
1446;SDS011;717;51.522;7.266;2022-10-24T16:13:14;7.50;;;1.90;;
1446;SDS011;717;51.522;7.266;2022-10-24T16:15:43;7.68;;;1.75;;
1446;SDS011;717;51.522;7.266;2022-10-24T16:18:11;5.55;;;1.63;;
1446;SDS011;717;51.522;7.266;2022-10-24T16:20:38;5.43;;;1.65;;
1446;SDS011;717;51.522;7.266;2022-10-24T16:23:06;5.32;;;1.50;;
1446;SDS011;717;51.522;7.266;2022-10-24T16:25:34;8.25;;;1.45;;
1446;SDS011;717;51.522;7.266;2022-10-24T16:28:02;6.78;;;1.30;;